createdAt,value
2022-09-02T00:00:21.404Z,101811.78
2022-09-02T00:00:59.828Z,101817.66
2022-09-02T00:01:37.985Z,101821.59
2022-09-02T00:02:09.437Z,101813.34
2022-09-02T00:02:41.002Z,101820.03
2022-09-02T00:03:13.580Z,101820.81
2022-09-02T00:03:46.083Z,101823.56
2022-09-02T00:04:21.559Z,101819.63
2022-09-02T00:04:53.088Z,101818.06
2022-09-02T00:05:42.768Z,101825.13
2022-09-02T00:06:15.187Z,101818.06
2022-09-02T00:06:47.776Z,101816.47
2022-09-02T00:07:19.122Z,101817.25
2022-09-02T00:07:50.495Z,101815.69
2022-09-02T00:08:21.897Z,101815.69
2022-09-02T00:08:53.573Z,101821.19
2022-09-02T00:09:26.057Z,101814.13
2022-09-02T00:09:57.569Z,101817.66
2022-09-02T00:10:29.267Z,101818.81
2022-09-02T00:11:02.185Z,101814.50
2022-09-02T00:11:37.217Z,101812.94
2022-09-02T00:12:09.588Z,101818.44
2022-09-02T00:12:40.932Z,101809.78
2022-09-02T00:13:15.103Z,101819.59
2022-09-02T00:13:47.024Z,101814.50
2022-09-02T00:14:25.203Z,101813.31
2022-09-02T00:14:56.629Z,101813.31
2022-09-02T00:15:28.073Z,101810.97
2022-09-02T00:16:01.171Z,101810.97
2022-09-02T00:16:51.708Z,101810.97
2022-09-02T00:17:23.164Z,101808.59
2022-09-02T00:18:15.626Z,101816.84
2022-09-02T00:18:51.708Z,101810.97
2022-09-02T00:19:25.519Z,101817.63
2022-09-02T00:19:56.908Z,101813.31
2022-09-02T00:21:20.472Z,101813.72
2022-09-02T00:21:54.320Z,101809.00
2022-09-02T00:22:25.721Z,101810.56
2022-09-02T00:22:57.265Z,101813.31
2022-09-02T00:23:28.858Z,101815.28
2022-09-02T00:24:54.030Z,101811.75
2022-09-02T00:25:25.937Z,101817.25
2022-09-02T00:25:57.860Z,101810.16
2022-09-02T00:26:29.378Z,101806.63
2022-09-02T00:27:01.051Z,101812.50
2022-09-02T00:27:32.392Z,101815.66
2022-09-02T00:28:04.266Z,101804.66
2022-09-02T00:28:39.002Z,101809.38
2022-09-02T00:29:14.491Z,101814.06
2022-09-02T00:29:45.883Z,101814.88
2022-09-02T00:30:36.160Z,101812.91
2022-09-02T00:31:07.557Z,101818.00
2022-09-02T00:31:39.471Z,101808.19
2022-09-02T00:32:29.641Z,101814.84
2022-09-02T00:33:01.582Z,101818.78
2022-09-02T00:33:33.043Z,101816.78
2022-09-02T00:34:05.986Z,101819.94
2022-09-02T00:34:37.341Z,101820.31
2022-09-02T00:35:09.940Z,101811.31
2022-09-02T00:35:42.244Z,101820.31
2022-09-02T00:36:13.915Z,101815.59
2022-09-02T00:36:45.435Z,101814.81
2022-09-02T00:37:17.214Z,101813.25
2022-09-02T00:37:48.884Z,101814.44
2022-09-02T00:38:20.241Z,101813.66
2022-09-02T00:38:52.001Z,101810.09
2022-09-02T00:39:23.364Z,101810.91
2022-09-02T00:39:54.815Z,101811.69
2022-09-02T00:40:28.626Z,101822.31
2022-09-02T00:41:02.244Z,101811.31
2022-09-02T00:41:34.740Z,101810.91
2022-09-02T00:42:06.919Z,101805.41
2022-09-02T00:42:38.452Z,101809.75
2022-09-02T00:43:10.142Z,101816.41
2022-09-02T00:43:51.753Z,101812.88
2022-09-02T00:44:23.127Z,101808.53
2022-09-02T00:45:12.912Z,101808.94
2022-09-02T00:45:44.311Z,101798.72
2022-09-02T00:46:22.157Z,101810.09
2022-09-02T00:46:53.523Z,101806.97
2022-09-02T00:47:26.041Z,101805.75
2022-09-02T00:47:57.407Z,101805.38
2022-09-02T00:49:29.015Z,101802.59
2022-09-02T00:50:00.839Z,101799.84
2022-09-02T00:50:36.037Z,101805.34
2022-09-02T00:51:27.060Z,101797.91
2022-09-02T00:52:04.734Z,101808.09
2022-09-02T00:52:53.559Z,101805.72
2022-09-02T00:53:26.145Z,101796.31
2022-09-02T00:53:58.263Z,101805.75
2022-09-02T00:54:32.635Z,101811.59
2022-09-02T00:55:06.228Z,101803.72
2022-09-02T00:55:44.938Z,101810.81
2022-09-02T00:56:23.229Z,101800.19
2022-09-02T00:56:56.195Z,101806.88
2022-09-02T00:57:34.022Z,101798.25
2022-09-02T00:58:13.816Z,101801.78
2022-09-02T00:58:45.409Z,101805.69
2022-09-02T00:59:27.276Z,101808.44
2022-09-02T01:00:09.080Z,101798.63
2022-09-02T01:01:01.276Z,101801.38
2022-09-02T01:01:33.236Z,101798.59
2022-09-02T01:02:06.119Z,101791.94
2022-09-02T01:02:40.524Z,101802.94
2022-09-02T01:03:17.982Z,101795.06
2022-09-02T01:03:50.395Z,101793.91
2022-09-02T01:04:21.904Z,101790.75
2022-09-02T01:04:56.599Z,101791.94
2022-09-02T01:05:30.657Z,101791.56
2022-09-02T01:06:02.673Z,101795.09
2022-09-02T01:06:34.511Z,101785.66
2022-09-02T01:07:06.732Z,101792.72
2022-09-02T01:07:40.092Z,101788.78
2022-09-02T01:08:15.984Z,101781.72
2022-09-02T01:08:54.421Z,101793.09
2022-09-02T01:09:25.845Z,101785.63
2022-09-02T01:09:58.188Z,101786.03
2022-09-02T01:10:35.731Z,101774.63
2022-09-02T01:11:07.394Z,101788.00
2022-09-02T01:11:47.827Z,101786.41
2022-09-02T01:12:19.745Z,101787.97
2022-09-02T01:12:56.276Z,101778.16
2022-09-02T01:13:50.213Z,101784.81
2022-09-02T01:14:22.692Z,101788.00
2022-09-02T01:14:54.529Z,101783.66
2022-09-02T01:16:42.154Z,101787.97
2022-09-02T01:17:20.366Z,101786.38
2022-09-02T01:17:53.462Z,101789.53
2022-09-02T01:18:29.230Z,101784.84
2022-09-02T01:19:06.534Z,101787.97
2022-09-02T01:19:47.178Z,101790.69
2022-09-02T01:20:24.578Z,101784.00
2022-09-02T01:20:59.769Z,101785.59
2022-09-02T01:21:31.521Z,101784.41
2022-09-02T01:22:06.314Z,101785.19
2022-09-02T01:22:38.782Z,101788.72
2022-09-02T01:23:11.404Z,101782.44
2022-09-02T01:23:43.383Z,101784.78
2022-09-02T01:24:16.694Z,101787.94
2022-09-02T01:24:48.384Z,101785.19
2022-09-02T01:25:23.389Z,101784.78
2022-09-02T01:26:14.135Z,101789.91
2022-09-02T01:26:45.632Z,101787.53
2022-09-02T01:27:18.928Z,101784.78
2022-09-02T01:27:50.850Z,101782.06
2022-09-02T01:28:23.377Z,101782.44
2022-09-02T01:28:54.982Z,101781.66
2022-09-02T01:29:28.098Z,101787.56
2022-09-02T01:30:00.479Z,101782.06
2022-09-02T01:30:33.229Z,101784.78
2022-09-02T01:31:05.266Z,101788.31
2022-09-02T01:31:36.906Z,101785.94
2022-09-02T01:32:08.483Z,101783.19
2022-09-02T01:32:40.229Z,101784.78
2022-09-02T01:34:01.578Z,101782.03
2022-09-02T01:34:32.938Z,101777.69
2022-09-02T01:35:04.812Z,101776.91
2022-09-02T01:35:37.412Z,101780.06
2022-09-02T01:36:08.869Z,101778.50
2022-09-02T01:36:42.425Z,101776.16
2022-09-02T01:37:14.062Z,101777.72
2022-09-02T01:37:54.736Z,101769.06
2022-09-02T01:38:27.944Z,101776.94
2022-09-02T01:38:59.626Z,101770.66
2022-09-02T01:39:30.999Z,101776.53
2022-09-02T01:40:02.893Z,101772.22
2022-09-02T01:40:34.554Z,101772.59
2022-09-02T01:41:06.565Z,101770.63
2022-09-02T01:41:38.092Z,101773.00
2022-09-02T01:42:09.528Z,101771.00
2022-09-02T01:42:41.954Z,101772.19
2022-09-02T01:43:19.713Z,101765.91
2022-09-02T01:43:51.144Z,101775.31
2022-09-02T01:44:22.559Z,101771.03
2022-09-02T01:44:54.289Z,101767.50
2022-09-02T01:45:26.237Z,101766.69
2022-09-02T01:45:59.377Z,101768.28
2022-09-02T01:46:49.477Z,101765.13
2022-09-02T01:47:41.655Z,101768.66
2022-09-02T01:48:13.747Z,101769.03
2022-09-02T01:48:51.021Z,101761.59
2022-09-02T01:49:27.196Z,101766.31
2022-09-02T01:49:58.864Z,101767.09
2022-09-02T01:50:31.693Z,101764.34
2022-09-02T01:51:04.265Z,101771.00
2022-09-02T01:51:36.257Z,101772.56
2022-09-02T01:52:08.664Z,101764.69
2022-09-02T01:52:40.314Z,101770.56
2022-09-02T01:53:11.721Z,101765.84
2022-09-02T01:53:43.692Z,101772.13
2022-09-02T01:54:15.152Z,101761.53
2022-09-02T01:54:47.761Z,101770.56
2022-09-02T01:55:19.206Z,101759.19
2022-09-02T01:55:50.767Z,101766.66
2022-09-02T01:56:22.109Z,101770.56
2022-09-02T01:56:53.478Z,101762.75
2022-09-02T01:57:25.258Z,101764.69
2022-09-02T01:57:57.390Z,101764.69
2022-09-02T01:58:28.830Z,101767.84
2022-09-02T01:59:00.378Z,101775.31
2022-09-02T01:59:31.812Z,101763.16
2022-09-02T02:00:06.854Z,101765.91
2022-09-02T02:00:38.244Z,101764.31
2022-09-02T02:01:10.079Z,101760.78
2022-09-02T02:01:41.575Z,101765.50
2022-09-02T02:02:14.078Z,101764.31
2022-09-02T02:02:46.026Z,101765.50
2022-09-02T02:03:36.196Z,101756.84
2022-09-02T02:04:13.329Z,101760.38
2022-09-02T02:04:46.016Z,101758.81
2022-09-02T02:05:18.476Z,101753.31
2022-09-02T02:05:49.839Z,101757.59
2022-09-02T02:06:21.282Z,101763.13
2022-09-02T02:06:53.465Z,101756.47
2022-09-02T02:07:26.044Z,101761.16
2022-09-02T02:07:57.500Z,101758.03
2022-09-02T02:08:29.094Z,101759.59
2022-09-02T02:09:00.599Z,101758.03
2022-09-02T02:09:31.951Z,101763.91
2022-09-02T02:10:04.449Z,101756.44
2022-09-02T02:10:36.790Z,101752.13
2022-09-02T02:11:09.098Z,101765.09
2022-09-02T02:11:41.031Z,101756.44
2022-09-02T02:12:12.709Z,101756.44
2022-09-02T02:12:44.305Z,101751.31
2022-09-02T02:13:16.128Z,101756.03
2022-09-02T02:13:47.701Z,101766.63
2022-09-02T02:14:19.921Z,101756.00
2022-09-02T02:14:51.334Z,101758.38
2022-09-02T02:15:54.951Z,101755.63
2022-09-02T02:16:26.586Z,101754.84
2022-09-02T02:16:58.572Z,101762.28
2022-09-02T02:17:29.945Z,101752.09
2022-09-02T02:18:01.316Z,101760.34
2022-09-02T02:18:32.724Z,101754.84
2022-09-02T02:19:04.777Z,101758.38
2022-09-02T02:19:36.261Z,101760.34
2022-09-02T02:20:09.635Z,101761.13
2022-09-02T02:20:41.000Z,101760.34
2022-09-02T02:21:16.449Z,101763.09
2022-09-02T02:21:47.949Z,101764.63
2022-09-02T02:22:20.876Z,101756.81
2022-09-02T02:22:52.830Z,101756.81
2022-09-02T02:23:24.555Z,101757.97
2022-09-02T02:23:57.666Z,101761.88
2022-09-02T02:24:29.318Z,101751.69
2022-09-02T02:25:00.693Z,101757.59
2022-09-02T02:25:32.680Z,101760.34
2022-09-02T02:26:04.376Z,101754.44
2022-09-02T02:26:36.255Z,101762.31
2022-09-02T02:27:07.895Z,101755.63
2022-09-02T02:27:39.280Z,101759.53
2022-09-02T02:28:15.045Z,101757.94
2022-09-02T02:28:46.407Z,101758.75
2022-09-02T02:29:17.974Z,101753.25
2022-09-02T02:29:49.437Z,101751.28
2022-09-02T02:30:21.031Z,101759.53
2022-09-02T02:30:52.629Z,101752.06
2022-09-02T02:31:42.837Z,101754.00
2022-09-02T02:32:14.776Z,101751.66
2022-09-02T02:32:47.777Z,101751.66
2022-09-02T02:33:19.200Z,101756.34
2022-09-02T02:33:51.110Z,101747.72
2022-09-02T02:34:22.835Z,101758.72
2022-09-02T02:34:54.604Z,101746.91
2022-09-02T02:35:26.102Z,101751.25
2022-09-02T02:35:57.856Z,101752.03
2022-09-02T02:36:29.620Z,101744.94
2022-09-02T02:37:01.731Z,101753.59
2022-09-02T02:37:33.794Z,101752.03
2022-09-02T02:38:05.352Z,101750.06
2022-09-02T02:38:39.103Z,101752.44
2022-09-02T02:39:12.486Z,101757.13
2022-09-02T02:39:44.401Z,101756.34
2022-09-02T02:40:21.054Z,101757.13
2022-09-02T02:40:57.400Z,101747.31
2022-09-02T02:41:32.345Z,101756.34
2022-09-02T02:42:03.857Z,101748.50
2022-09-02T02:42:35.424Z,101752.03
2022-09-02T02:43:06.777Z,101755.56
2022-09-02T02:43:39.447Z,101749.28
2022-09-02T02:44:10.835Z,101752.41
2022-09-02T02:44:42.206Z,101752.78
2022-09-02T02:45:15.001Z,101753.19
2022-09-02T02:45:46.948Z,101752.03
2022-09-02T02:46:19.122Z,101740.22
2022-09-02T02:46:50.757Z,101754.38
2022-09-02T02:47:22.252Z,101749.25
2022-09-02T02:47:54.423Z,101751.25
2022-09-02T02:48:25.988Z,101750.47
2022-09-02T02:49:00.340Z,101752.78
2022-09-02T02:49:32.093Z,101750.84
2022-09-02T02:50:03.757Z,101750.84
2022-09-02T02:50:35.106Z,101745.72
2022-09-02T02:51:06.759Z,101750.03
2022-09-02T02:51:38.528Z,101752.78
2022-09-02T02:52:11.974Z,101747.69
2022-09-02T02:52:45.486Z,101750.84
2022-09-02T02:53:17.667Z,101746.91
2022-09-02T02:53:49.075Z,101741.41
2022-09-02T02:54:21.234Z,101748.09
2022-09-02T02:54:52.945Z,101742.97
2022-09-02T02:55:25.318Z,101746.50
2022-09-02T02:55:58.004Z,101746.09
2022-09-02T02:56:30.368Z,101745.31
2022-09-02T02:57:20.902Z,101744.53
2022-09-02T02:57:52.416Z,101745.69
2022-09-02T02:58:23.772Z,101749.66
2022-09-02T02:59:44.216Z,101739.44
2022-09-02T03:00:22.740Z,101742.97
2022-09-02T03:01:43.754Z,101744.53
2022-09-02T03:02:15.293Z,101742.16
2022-09-02T03:02:47.007Z,101743.75
2022-09-02T03:03:19.699Z,101742.16
2022-09-02T03:03:53.017Z,101743.34
2022-09-02T03:04:24.539Z,101737.06
2022-09-02T03:04:56.297Z,101739.03
2022-09-02T03:05:28.658Z,101740.97
2022-09-02T03:06:00.932Z,101741.75
2022-09-02T03:06:32.301Z,101733.53
2022-09-02T03:07:07.065Z,101735.88
2022-09-02T03:07:38.862Z,101741.34
2022-09-02T03:08:10.972Z,101742.16
2022-09-02T03:08:42.543Z,101740.16
2022-09-02T03:09:13.965Z,101742.91
2022-09-02T03:09:45.307Z,101740.16
2022-09-02T03:10:17.961Z,101734.66
2022-09-02T03:10:54.506Z,101747.59
2022-09-02T03:11:28.002Z,101740.16
2022-09-02T03:11:59.355Z,101733.47
2022-09-02T03:12:33.069Z,101739.38
2022-09-02T03:13:04.931Z,101733.06
2022-09-02T03:13:36.522Z,101737.78
2022-09-02T03:14:08.480Z,101736.63
2022-09-02T03:14:58.593Z,101731.53
2022-09-02T03:15:30.400Z,101731.53
2022-09-02T03:16:05.103Z,101732.69
2022-09-02T03:16:36.683Z,101727.59
2022-09-02T03:17:08.060Z,101731.13
2022-09-02T03:17:39.483Z,101736.97
2022-09-02T03:18:10.933Z,101729.91
2022-09-02T03:18:42.302Z,101722.06
2022-09-02T03:19:14.184Z,101725.59
2022-09-02T03:19:45.821Z,101726.75
2022-09-02T03:20:18.059Z,101724.81
2022-09-02T03:22:16.209Z,101726.75
2022-09-02T03:22:48.884Z,101731.47
2022-09-02T03:23:20.825Z,101728.31
2022-09-02T03:23:52.317Z,101730.66
2022-09-02T03:24:23.949Z,101729.47
2022-09-02T03:24:55.336Z,101724.00
2022-09-02T03:25:33.498Z,101728.28
2022-09-02T03:26:13.219Z,101733.03
2022-09-02T03:26:44.687Z,101727.13
2022-09-02T03:27:16.244Z,101728.28
2022-09-02T03:27:48.841Z,101733.03
2022-09-02T03:28:20.228Z,101731.06
2022-09-02T03:28:55.809Z,101732.59
2022-09-02T03:29:27.246Z,101724.34
2022-09-02T03:29:59.114Z,101721.19
2022-09-02T03:30:32.173Z,101727.09
2022-09-02T03:31:04.057Z,101729.44
2022-09-02T03:31:54.051Z,101730.25
2022-09-02T03:32:26.340Z,101727.88
2022-09-02T03:33:04.416Z,101725.91
2022-09-02T03:33:35.926Z,101727.47
2022-09-02T03:34:08.006Z,101731.41
2022-09-02T03:34:39.437Z,101731.41
2022-09-02T03:35:15.441Z,101736.91
2022-09-02T03:35:46.881Z,101728.25
2022-09-02T03:36:34.634Z,101729.84
2022-09-02T03:37:05.960Z,101728.66
2022-09-02T03:37:38.108Z,101732.56
2022-09-02T03:38:11.048Z,101743.56
2022-09-02T03:38:42.397Z,101724.69
2022-09-02T03:39:13.942Z,101720.00
2022-09-02T03:39:45.345Z,101727.03
2022-09-02T03:40:20.743Z,101718.41
2022-09-02T03:40:52.226Z,101727.44
2022-09-02T03:41:24.547Z,101725.47
2022-09-02T03:41:55.959Z,101730.19
2022-09-02T03:42:45.947Z,101728.22
2022-09-02T03:43:18.382Z,101730.59
2022-09-02T03:43:49.925Z,101728.22
2022-09-02T03:44:21.349Z,101725.91
2022-09-02T03:44:53.211Z,101726.28
2022-09-02T03:45:24.672Z,101720.00
2022-09-02T03:45:56.101Z,101731.00
2022-09-02T03:46:28.036Z,101726.69
2022-09-02T03:46:59.500Z,101726.28
2022-09-02T03:47:30.930Z,101727.06
2022-09-02T03:48:02.967Z,101725.47
2022-09-02T03:48:34.326Z,101726.69
2022-09-02T03:49:05.865Z,101723.91
2022-09-02T03:49:37.373Z,101725.91
2022-09-02T03:50:08.794Z,101719.22
2022-09-02T03:50:42.521Z,101720.78
2022-09-02T03:51:32.694Z,101721.16
2022-09-02T03:52:41.681Z,101726.66
2022-09-02T03:53:22.984Z,101721.53
2022-09-02T03:53:54.967Z,101725.06
2022-09-02T03:54:26.447Z,101717.63
2022-09-02T03:54:57.909Z,101712.50
2022-09-02T03:55:30.908Z,101717.63
2022-09-02T03:56:11.920Z,101710.97
2022-09-02T03:56:44.656Z,101720.00
2022-09-02T03:57:17.968Z,101713.72
2022-09-02T03:58:57.459Z,101713.72
2022-09-02T03:59:29.663Z,101711.34
2022-09-02T04:00:01.953Z,101714.09
2022-09-02T04:00:33.524Z,101714.09
2022-09-02T04:01:05.647Z,101714.88
2022-09-02T04:01:55.996Z,101706.66
2022-09-02T04:02:27.528Z,101711.72
2022-09-02T04:03:01.354Z,101707.00
2022-09-02T04:03:32.888Z,101708.16
2022-09-02T04:04:05.972Z,101717.97
2022-09-02T04:04:37.330Z,101702.69
2022-09-02T04:05:27.497Z,101703.84
2022-09-02T04:05:59.540Z,101713.25
2022-09-02T04:06:32.651Z,101705.00
2022-09-02T04:07:04.551Z,101709.69
2022-09-02T04:07:35.897Z,101709.69
2022-09-02T04:08:07.224Z,101703.41
2022-09-02T04:08:40.558Z,101703.41
2022-09-02T04:09:12.225Z,101701.47
2022-09-02T04:09:46.711Z,101700.66
2022-09-02T04:11:13.244Z,101707.31
2022-09-02T04:11:44.693Z,101705.75
2022-09-02T04:13:05.196Z,101702.63
2022-09-02T04:13:36.771Z,101703.38
2022-09-02T04:14:09.420Z,101700.63
2022-09-02T04:14:42.232Z,101698.66
2022-09-02T04:15:14.156Z,101703.75
2022-09-02T04:15:48.047Z,101701.81
2022-09-02T04:16:28.785Z,101701.81
2022-09-02T04:17:00.428Z,101700.59
2022-09-02T04:17:32.146Z,101693.56
2022-09-02T04:18:03.610Z,101699.44
2022-09-02T04:18:35.301Z,101701.81
2022-09-02T04:19:07.401Z,101693.16
2022-09-02T04:19:40.265Z,101699.06
2022-09-02T04:20:13.791Z,101697.09
2022-09-02T04:20:45.617Z,101710.03
2022-09-02T04:21:17.046Z,101700.22
2022-09-02T04:22:06.876Z,101701.41
2022-09-02T04:23:28.846Z,101697.88
2022-09-02T04:24:49.539Z,101701.03
2022-09-02T04:25:21.068Z,101696.31
2022-09-02T04:26:21.845Z,101700.22
2022-09-02T04:26:53.193Z,101694.72
2022-09-02T04:27:24.528Z,101696.66
2022-09-02T04:27:55.921Z,101698.63
2022-09-02T04:28:27.513Z,101690.78
2022-09-02T04:28:59.189Z,101693.13
2022-09-02T04:29:32.140Z,101693.94
2022-09-02T04:30:04.692Z,101703.31
2022-09-02T04:30:39.947Z,101699.00
2022-09-02T04:31:15.928Z,101694.69
2022-09-02T04:31:47.394Z,101690.75
2022-09-02T04:32:20.122Z,101693.09
2022-09-02T04:33:42.006Z,101698.19
2022-09-02T04:34:13.436Z,101697.00
2022-09-02T04:34:45.784Z,101697.00
2022-09-02T04:35:21.654Z,101697.41
2022-09-02T04:35:53.021Z,101694.66
2022-09-02T04:36:25.644Z,101702.88
2022-09-02T04:37:02.070Z,101697.78
2022-09-02T04:37:33.484Z,101693.03
2022-09-02T04:38:04.853Z,101700.50
2022-09-02T04:38:56.202Z,101698.94
2022-09-02T04:39:27.575Z,101696.56
2022-09-02T04:39:59.412Z,101691.47
2022-09-02T04:40:31.421Z,101702.44
2022-09-02T04:41:14.743Z,101696.94
2022-09-02T04:42:04.878Z,101702.81
2022-09-02T04:42:36.579Z,101696.56
2022-09-02T04:43:08.380Z,101696.16
2022-09-02T04:43:40.932Z,101693.81
2022-09-02T04:45:01.570Z,101691.84
2022-09-02T04:45:32.973Z,101698.53
2022-09-02T04:46:06.970Z,101692.63
2022-09-02T04:46:38.630Z,101698.53
2022-09-02T04:47:10.087Z,101695.38
2022-09-02T04:48:00.003Z,101691.47
2022-09-02T04:48:32.668Z,101702.44
2022-09-02T04:49:04.732Z,101695.38
2022-09-02T04:49:54.946Z,101696.94
2022-09-02T04:50:26.528Z,101696.53
2022-09-02T04:50:58.287Z,101690.25
2022-09-02T04:51:29.890Z,101693.38
2022-09-02T04:52:19.966Z,101694.97
2022-09-02T04:52:51.317Z,101694.16
2022-09-02T04:53:22.728Z,101692.97
2022-09-02T04:53:54.700Z,101698.06
2022-09-02T04:54:26.296Z,101695.72
2022-09-02T04:54:57.731Z,101692.19
2022-09-02T04:55:29.073Z,101693.75
2022-09-02T04:56:01.183Z,101692.97
2022-09-02T04:56:32.546Z,101700.03
2022-09-02T04:57:04.048Z,101691.00
2022-09-02T04:58:44.463Z,101696.50
2022-09-02T04:59:16.619Z,101694.13
2022-09-02T04:59:48.309Z,101697.25
2022-09-02T05:00:19.927Z,101696.84
2022-09-02T05:00:51.268Z,101691.41
2022-09-02T05:01:25.478Z,101690.97
2022-09-02T05:01:57.036Z,101695.31
2022-09-02T05:02:28.597Z,101689.81
2022-09-02T05:03:00.454Z,101699.22
2022-09-02T05:03:32.000Z,101694.50
2022-09-02T05:04:09.384Z,101694.50
2022-09-02T05:04:40.999Z,101691.41
2022-09-02T05:05:12.656Z,101692.16
2022-09-02T05:06:02.929Z,101692.56
2022-09-02T05:06:34.280Z,101690.97
2022-09-02T05:07:05.729Z,101695.31
2022-09-02T05:07:37.775Z,101705.47
2022-09-02T05:08:09.997Z,101698.78
2022-09-02T05:08:42.202Z,101695.25
2022-09-02T05:09:13.887Z,101690.94
2022-09-02T05:09:45.256Z,101686.63
2022-09-02T05:10:17.815Z,101694.88
2022-09-02T05:10:50.411Z,101693.31
2022-09-02T05:11:28.397Z,101693.31
2022-09-02T05:12:02.138Z,101698.41
2022-09-02T05:12:35.835Z,101697.63
2022-09-02T05:13:07.155Z,101686.66
2022-09-02T05:13:39.108Z,101690.97
2022-09-02T05:14:29.571Z,101693.72
2022-09-02T05:15:02.970Z,101692.16
2022-09-02T05:15:40.140Z,101695.69
2022-09-02T05:16:15.862Z,101695.25
2022-09-02T05:16:48.180Z,101692.53
2022-09-02T05:17:23.111Z,101695.25
2022-09-02T05:17:54.476Z,101686.25
2022-09-02T05:18:25.799Z,101689.78
2022-09-02T05:18:58.568Z,101694.47
2022-09-02T05:19:30.831Z,101693.31
2022-09-02T05:20:04.711Z,101690.56
2022-09-02T05:20:57.492Z,101698.00
2022-09-02T05:21:31.030Z,101695.25
2022-09-02T05:22:05.041Z,101689.00
2022-09-02T05:22:37.426Z,101696.06
2022-09-02T05:23:08.966Z,101694.47
2022-09-02T05:23:59.415Z,101690.56
2022-09-02T05:24:30.760Z,101689.78
2022-09-02T05:25:03.179Z,101691.72
2022-09-02T05:25:53.076Z,101694.09
2022-09-02T05:26:24.900Z,101685.09
2022-09-02T05:27:16.235Z,101689.41
2022-09-02T05:27:47.627Z,101692.16
2022-09-02T05:28:19.026Z,101690.97
2022-09-02T05:28:51.014Z,101688.25
2022-09-02T05:29:23.678Z,101689.03
2022-09-02T05:29:56.610Z,101696.09
2022-09-02T05:30:27.939Z,101693.34
2022-09-02T05:31:05.603Z,101691.41
2022-09-02T05:31:40.295Z,101688.28
2022-09-02T05:32:11.624Z,101692.97
2022-09-02T05:32:42.935Z,101692.59
2022-09-02T05:33:14.721Z,101692.59
2022-09-02T05:34:05.412Z,101690.63
2022-09-02T05:34:37.087Z,101691.44
2022-09-02T05:35:08.660Z,101692.22
2022-09-02T05:35:42.091Z,101686.34
2022-09-02T05:36:20.745Z,101685.97
2022-09-02T05:36:52.080Z,101697.72
2022-09-02T05:37:24.483Z,101689.09
2022-09-02T05:38:00.792Z,101689.88
2022-09-02T05:38:32.403Z,101692.63
2022-09-02T05:39:05.113Z,101685.19
2022-09-02T05:39:36.503Z,101689.50
2022-09-02T05:40:08.805Z,101691.47
2022-09-02T05:40:40.647Z,101682.84
2022-09-02T05:41:19.655Z,101683.66
2022-09-02T05:41:51.021Z,101687.19
2022-09-02T05:42:22.399Z,101687.59
2022-09-02T05:42:53.767Z,101687.59
2022-09-02T05:43:25.238Z,101688.38
2022-09-02T05:44:50.865Z,101683.69
2022-09-02T05:45:23.687Z,101684.47
2022-09-02T05:45:55.070Z,101691.16
2022-09-02T05:46:27.274Z,101690.38
2022-09-02T05:46:58.663Z,101690.38
2022-09-02T05:47:29.981Z,101685.66
2022-09-02T05:48:21.359Z,101688.03
2022-09-02T05:49:07.358Z,101680.97
2022-09-02T05:50:46.121Z,101686.88
2022-09-02T05:51:22.902Z,101692.34
2022-09-02T05:51:57.455Z,101697.03
2022-09-02T05:52:28.844Z,101691.56
2022-09-02T05:53:00.162Z,101687.25
2022-09-02T05:53:32.556Z,101687.63
2022-09-02T05:54:03.980Z,101695.06
2022-09-02T05:54:37.580Z,101693.91
2022-09-02T05:55:09.537Z,101690.78
2022-09-02T05:55:41.071Z,101695.09
2022-09-02T05:56:31.180Z,101697.06
2022-09-02T05:57:08.688Z,101690.81
2022-09-02T05:57:40.064Z,101688.06
2022-09-02T05:58:11.408Z,101692.38
2022-09-02T05:59:01.893Z,101689.63
2022-09-02T05:59:36.729Z,101688.47
2022-09-02T06:00:08.960Z,101686.09
2022-09-02T06:00:40.374Z,101689.63
2022-09-02T06:01:14.172Z,101689.25
2022-09-02T06:01:45.653Z,101688.47
2022-09-02T06:02:18.029Z,101691.22
2022-09-02T06:02:51.517Z,101692.00
2022-09-02T06:03:23.143Z,101693.56
2022-09-02T06:03:56.019Z,101684.19
2022-09-02T06:04:27.382Z,101688.50
2022-09-02T06:04:58.703Z,101689.28
2022-09-02T06:05:30.812Z,101686.16
2022-09-02T06:06:06.544Z,101687.75
2022-09-02T06:06:38.796Z,101689.31
2022-09-02T06:07:13.714Z,101686.19
2022-09-02T06:08:34.931Z,101688.19
2022-09-02T06:09:27.280Z,101687.81
2022-09-02T06:09:58.988Z,101693.34
2022-09-02T06:10:30.580Z,101689.03
2022-09-02T06:11:02.723Z,101689.03
2022-09-02T06:11:35.165Z,101687.44
2022-09-02T06:12:07.744Z,101682.38
2022-09-02T06:12:42.492Z,101683.56
2022-09-02T06:14:27.198Z,101690.25
2022-09-02T06:14:58.597Z,101685.53
2022-09-02T06:15:31.081Z,101683.59
2022-09-02T06:16:02.941Z,101683.59
2022-09-02T06:16:35.028Z,101684.00
2022-09-02T06:17:06.452Z,101689.47
2022-09-02T06:17:38.065Z,101691.84
2022-09-02T06:18:10.356Z,101676.56
2022-09-02T06:18:45.553Z,101682.81
2022-09-02T06:19:20.219Z,101679.69
2022-09-02T06:19:52.703Z,101685.22
2022-09-02T06:20:24.327Z,101678.56
2022-09-02T06:21:15.297Z,101684.84
2022-09-02T06:21:48.047Z,101687.97
2022-09-02T06:22:19.501Z,101681.31
2022-09-02T06:22:50.836Z,101678.97
2022-09-02T06:23:22.224Z,101679.38
2022-09-02T06:23:53.670Z,101681.72
2022-09-02T06:24:26.552Z,101684.09
2022-09-02T06:24:57.925Z,101681.75
2022-09-02T06:25:29.279Z,101683.34
2022-09-02T06:26:00.867Z,101685.72
2022-09-02T06:26:32.909Z,101679.03
2022-09-02T06:27:04.527Z,101684.13
2022-09-02T06:27:37.491Z,101683.34
2022-09-02T06:28:09.274Z,101672.34
2022-09-02T06:28:41.067Z,101664.91
2022-09-02T06:29:13.083Z,101677.09
2022-09-02T06:29:46.082Z,101673.19
2022-09-02T06:30:17.579Z,101676.34
2022-09-02T06:30:50.441Z,101681.44
2022-09-02T06:31:23.074Z,101681.84
2022-09-02T06:31:54.828Z,101675.19
2022-09-02T06:32:26.184Z,101674.00
2022-09-02T06:32:57.637Z,101670.88
2022-09-02T06:33:29.057Z,101673.63
2022-09-02T06:34:01.071Z,101675.56
2022-09-02T06:34:35.167Z,101673.22
2022-09-02T06:35:08.074Z,101677.94
2022-09-02T06:36:00.136Z,101675.19
2022-09-02T06:36:31.656Z,101677.19
2022-09-02T06:37:03.133Z,101677.97
2022-09-02T06:37:34.495Z,101675.63
2022-09-02T06:38:06.174Z,101677.97
2022-09-02T06:38:42.636Z,101671.72
2022-09-02T06:39:19.360Z,101678.41
2022-09-02T06:39:50.708Z,101674.44
2022-09-02T06:40:22.357Z,101677.19
2022-09-02T06:40:55.671Z,101678.38
2022-09-02T06:41:49.352Z,101669.75
2022-09-02T06:42:20.835Z,101682.72
2022-09-02T06:42:53.205Z,101679.59
2022-09-02T06:43:24.900Z,101669.78
2022-09-02T06:44:00.077Z,101684.72
2022-09-02T06:44:50.164Z,101676.09
2022-09-02T06:45:24.115Z,101671.78
2022-09-02T06:45:55.557Z,101677.25
2022-09-02T06:46:30.575Z,101670.97
2022-09-02T06:47:02.857Z,101676.88